createdAt,value
2022-10-03T00:02:44.129Z,97923.31
2022-10-03T00:05:28.145Z,97917.41
2022-10-03T00:08:13.427Z,97910.44
2022-10-03T00:11:03.510Z,97910.66
2022-10-03T00:13:51.934Z,97910.00
2022-10-03T00:16:33.447Z,97910.09
2022-10-03T00:19:25.699Z,97922.56
2022-10-03T00:22:18.437Z,97920.56
2022-10-03T00:24:59.682Z,97929.94
2022-10-03T00:27:30.991Z,97932.03
2022-10-03T00:30:16.679Z,97940.16
2022-10-03T00:33:03.270Z,97937.59
2022-10-03T00:35:43.542Z,97939.59
2022-10-03T00:38:40.861Z,97944.38
2022-10-03T00:41:13.233Z,97950.56
2022-10-03T00:44:07.839Z,97947.84
2022-10-03T00:47:08.524Z,97951.03
2022-10-03T00:50:09.157Z,97961.59
2022-10-03T00:53:12.517Z,97967.44
2022-10-03T00:56:13.158Z,97969.00
2022-10-03T00:59:16.534Z,97971.63
2022-10-03T01:01:46.624Z,97962.59
2022-10-03T01:04:23.177Z,97966.53
2022-10-03T01:07:11.258Z,97972.47
2022-10-03T01:09:46.787Z,97967.06
2022-10-03T01:12:30.637Z,97970.56
2022-10-03T01:15:22.911Z,97967.75
2022-10-03T01:18:17.561Z,97970.69
2022-10-03T01:20:50.707Z,97963.91
2022-10-03T01:23:50.429Z,97965.75
2022-10-03T01:26:48.202Z,97965.94
2022-10-03T01:29:57.659Z,97978.41
2022-10-03T01:33:09.242Z,97975.84
2022-10-03T01:35:42.218Z,97979.19
2022-10-03T01:38:35.523Z,97969.41
2022-10-03T01:41:11.522Z,97963.91
2022-10-03T01:43:47.594Z,97965.75
2022-10-03T01:46:28.077Z,97964.84
2022-10-03T01:49:32.328Z,97964.31
2022-10-03T01:52:10.577Z,97967.00
2022-10-03T01:54:50.739Z,97965.75
2022-10-03T01:57:49.533Z,97957.50
2022-10-03T02:00:18.979Z,97963.91
2022-10-03T02:03:11.310Z,97958.97
2022-10-03T02:05:57.726Z,97961.88
2022-10-03T02:08:35.346Z,97959.31
2022-10-03T02:11:08.379Z,97952.31
2022-10-03T02:13:51.890Z,97951.59
2022-10-03T02:16:21.322Z,97956.06
2022-10-03T02:18:58.420Z,97948.56
2022-10-03T02:21:29.630Z,97952.31
2022-10-03T02:24:20.327Z,97958.66
2022-10-03T02:27:07.597Z,97948.41
2022-10-03T02:29:46.433Z,97958.22
2022-10-03T02:32:31.570Z,97957.81
2022-10-03T02:35:28.453Z,97952.88
2022-10-03T02:38:13.309Z,97965.06
2022-10-03T02:41:11.435Z,97962.50
2022-10-03T02:43:53.793Z,97971.25
2022-10-03T02:46:51.716Z,97970.16
2022-10-03T02:49:53.452Z,97972.63
2022-10-03T02:52:57.488Z,97975.28
2022-10-03T02:55:36.298Z,97983.38
2022-10-03T02:58:41.123Z,97985.16
2022-10-03T03:01:19.812Z,97989.47
2022-10-03T03:03:58.302Z,97988.56
2022-10-03T03:07:02.397Z,97991.13
2022-10-03T03:09:50.737Z,97992.47
2022-10-03T03:12:41.414Z,97998.19
2022-10-03T03:15:26.923Z,97996.94
2022-10-03T03:18:30.878Z,97994.69
2022-10-03T03:21:20.617Z,97992.69
2022-10-03T03:24:11.913Z,98000.25
2022-10-03T03:26:53.236Z,97996.28
2022-10-03T03:29:28.746Z,97997.81
2022-10-03T03:32:04.367Z,97993.38
2022-10-03T03:34:33.837Z,97991.41
2022-10-03T03:37:00.857Z,97995.44
2022-10-03T03:39:33.167Z,98004.56
2022-10-03T03:42:05.769Z,97994.75
2022-10-03T03:44:44.531Z,97994.38
2022-10-03T03:47:43.305Z,98004.22
2022-10-03T03:50:27.592Z,98010.72
2022-10-03T03:53:34.136Z,98002.66
2022-10-03T03:56:06.547Z,98006.72
2022-10-03T03:58:39.724Z,98014.28
2022-10-03T04:01:06.266Z,98015.19
2022-10-03T04:03:32.805Z,98021.38
2022-10-03T04:06:12.820Z,98014.19
2022-10-03T04:08:59.250Z,98013.50
2022-10-03T04:11:41.702Z,98014.97
2022-10-03T04:14:18.803Z,98013.94
2022-10-03T04:17:36.837Z,98018.72
2022-10-03T04:20:28.304Z,98018.25
2022-10-03T04:23:24.792Z,98019.94
2022-10-03T04:26:23.917Z,98017.22
2022-10-03T04:29:12.029Z,98016.91
2022-10-03T04:31:44.914Z,98015.13
2022-10-03T04:34:41.327Z,98015.94
2022-10-03T04:37:16.655Z,98020.19
2022-10-03T04:39:52.227Z,98028.16
2022-10-03T04:42:40.882Z,98025.53
2022-10-03T04:45:30.890Z,98030.63
2022-10-03T04:48:05.417Z,98025.31
2022-10-03T04:50:44.350Z,98023.50
2022-10-03T04:53:13.840Z,98027.91
2022-10-03T04:55:47.727Z,98028.59
2022-10-03T04:58:32.490Z,98025.03
2022-10-03T05:01:15.153Z,98022.75
2022-10-03T05:04:19.637Z,98016.91
2022-10-03T05:06:59.024Z,98020.34
2022-10-03T05:09:38.154Z,98024.59
2022-10-03T05:12:10.701Z,98033.25
2022-10-03T05:14:57.534Z,98033.94
2022-10-03T05:18:00.552Z,98036.56
2022-10-03T05:20:31.048Z,98040.03
2022-10-03T05:23:13.028Z,98035.63
2022-10-03T05:26:43.707Z,98041.06
2022-10-03T05:29:10.658Z,98045.13
2022-10-03T05:31:45.038Z,98038.63
2022-10-03T05:34:33.151Z,98046.13
2022-10-03T05:37:08.746Z,98051.09
2022-10-03T05:40:05.083Z,98049.31
2022-10-03T05:42:50.967Z,98050.53
2022-10-03T05:45:30.355Z,98052.81
2022-10-03T05:48:15.174Z,98060.63
2022-10-03T05:51:11.830Z,98055.38
2022-10-03T05:54:03.650Z,98053.31
2022-10-03T05:56:48.272Z,98056.53
2022-10-03T05:59:35.444Z,98057.22
2022-10-03T06:02:21.032Z,98057.72
2022-10-03T06:05:02.647Z,98066.34
2022-10-03T06:07:30.624Z,98073.16
2022-10-03T06:10:25.804Z,98065.97
2022-10-03T06:13:04.375Z,98072.16
2022-10-03T06:16:08.622Z,98080.63
2022-10-03T06:18:35.199Z,98075.06
2022-10-03T06:21:11.733Z,98073.69
2022-10-03T06:23:57.697Z,98073.94
2022-10-03T06:26:45.821Z,98076.31
2022-10-03T06:29:49.569Z,98074.06
2022-10-03T06:32:41.961Z,98077.09
2022-10-03T06:35:11.631Z,98073.97
2022-10-03T06:38:02.506Z,98067.06
2022-10-03T06:40:34.856Z,98076.81
2022-10-03T06:43:32.275Z,98072.22
2022-10-03T06:46:17.032Z,98077.91
2022-10-03T06:48:46.617Z,98077.81
2022-10-03T06:51:39.067Z,98081.69
2022-10-03T06:54:42.856Z,98094.09
2022-10-03T06:57:35.717Z,98088.47
2022-10-03T07:00:15.557Z,98086.44
2022-10-03T07:03:19.607Z,98088.22
2022-10-03T07:06:21.929Z,98102.31
2022-10-03T07:09:25.407Z,98098.47
2022-10-03T07:12:39.850Z,98099.53
2022-10-03T07:15:43.589Z,98102.88
2022-10-03T07:18:37.961Z,98107.13
2022-10-03T07:21:21.313Z,98108.53
2022-10-03T07:24:02.980Z,98105.41
2022-10-03T07:26:57.800Z,98108.28
2022-10-03T07:29:31.574Z,98106.81
2022-10-03T07:32:22.392Z,98115.59
2022-10-03T07:35:47.348Z,98116.34
2022-10-03T07:38:58.285Z,98118.34
2022-10-03T07:41:32.491Z,98118.69
2022-10-03T07:44:33.474Z,98116.22
2022-10-03T07:47:15.743Z,98128.47
2022-10-03T07:50:01.394Z,98132.22
2022-10-03T07:52:45.175Z,98136.91
2022-10-03T07:55:51.609Z,98133.44
2022-10-03T07:58:39.194Z,98139.94
2022-10-03T08:01:11.729Z,98137.00
2022-10-03T08:04:03.138Z,98135.22
2022-10-03T08:06:50.254Z,98139.94
2022-10-03T08:09:26.997Z,98138.53
2022-10-03T08:12:26.184Z,98145.66
2022-10-03T08:14:58.398Z,98148.38
2022-10-03T08:17:59.964Z,98143.78
2022-10-03T08:20:42.602Z,98147.81
2022-10-03T08:23:21.299Z,98140.94
2022-10-03T08:26:09.583Z,98139.84
2022-10-03T08:29:08.836Z,98143.16
2022-10-03T08:31:39.022Z,98136.03
2022-10-03T08:34:20.933Z,98147.91
2022-10-03T08:36:50.110Z,98149.00
2022-10-03T08:39:42.107Z,98151.22
2022-10-03T08:42:23.742Z,98151.91
2022-10-03T08:45:19.484Z,98147.28
2022-10-03T08:48:04.810Z,98149.59
2022-10-03T08:50:50.091Z,98153.63
2022-10-03T08:53:47.825Z,98157.53
2022-10-03T08:56:23.453Z,98157.50
2022-10-03T08:59:14.725Z,98160.78
2022-10-03T09:02:35.598Z,98156.69
2022-10-03T09:05:23.850Z,98164.16
2022-10-03T09:08:15.145Z,98163.97
2022-10-03T09:11:18.891Z,98161.78
2022-10-03T09:14:22.939Z,98158.09
2022-10-03T09:17:03.342Z,98158.47
2022-10-03T09:20:03.861Z,98155.84
2022-10-03T09:23:08.759Z,98165.69
2022-10-03T09:25:35.285Z,98159.53
2022-10-03T09:28:25.556Z,98160.69
2022-10-03T09:31:19.699Z,98165.50
2022-10-03T09:34:09.302Z,98161.25
2022-10-03T09:37:14.510Z,98160.63
2022-10-03T09:40:12.424Z,98158.09
2022-10-03T09:42:57.661Z,98159.63
2022-10-03T09:45:48.105Z,98160.88
2022-10-03T09:48:39.845Z,98154.91
2022-10-03T09:51:24.585Z,98159.72
2022-10-03T09:54:18.952Z,98159.31
2022-10-03T09:57:33.522Z,98158.56
2022-10-03T10:00:15.683Z,98152.63
2022-10-03T10:03:23.962Z,98145.56
2022-10-03T10:06:11.501Z,98143.84
2022-10-03T10:09:13.197Z,98146.84
2022-10-03T10:11:42.511Z,98140.75
2022-10-03T10:14:42.951Z,98143.97
2022-10-03T10:17:31.193Z,98141.00
2022-10-03T10:20:40.430Z,98143.84
2022-10-03T10:23:28.562Z,98136.94
2022-10-03T10:26:32.562Z,98134.03
2022-10-03T10:29:34.270Z,98146.00
2022-10-03T10:32:28.421Z,98147.53
2022-10-03T10:35:26.963Z,98147.34
2022-10-03T10:38:26.853Z,98150.38
2022-10-03T10:41:38.174Z,98145.19
2022-10-03T10:44:29.581Z,98141.09
2022-10-03T10:46:56.150Z,98148.78
2022-10-03T10:49:47.643Z,98147.34
2022-10-03T10:53:12.302Z,98146.94
2022-10-03T10:56:02.638Z,98146.47
2022-10-03T10:58:34.920Z,98153.13
2022-10-03T11:01:29.131Z,98148.94
2022-10-03T11:04:23.557Z,98152.44
2022-10-03T11:07:17.565Z,98142.53
2022-10-03T11:09:47.494Z,98152.78
2022-10-03T11:12:50.457Z,98148.06
2022-10-03T11:16:18.969Z,98140.94
2022-10-03T11:19:09.689Z,98139.59
2022-10-03T11:21:59.611Z,98141.41
2022-10-03T11:24:44.888Z,98145.91
2022-10-03T11:27:41.545Z,98130.31
2022-10-03T11:30:49.633Z,98137.69
2022-10-03T11:33:41.150Z,98127.25
2022-10-03T11:36:41.240Z,98130.59
2022-10-03T11:39:18.291Z,98123.81
2022-10-03T11:42:00.832Z,98130.19
2022-10-03T11:44:32.361Z,98126.84
2022-10-03T11:46:58.903Z,98121.38
2022-10-03T11:49:38.524Z,98126.19
2022-10-03T11:52:27.922Z,98122.47
2022-10-03T11:55:03.311Z,98119.19
2022-10-03T11:57:39.594Z,98118.00
2022-10-03T12:00:21.341Z,98120.13
2022-10-03T12:03:13.808Z,98115.28
2022-10-03T12:06:34.680Z,98117.16
2022-10-03T12:09:17.762Z,98121.19
2022-10-03T12:11:58.211Z,98117.09
2022-10-03T12:14:29.328Z,98118.25
2022-10-03T12:17:12.265Z,98115.50
2022-10-03T12:20:15.795Z,98106.47
2022-10-03T12:22:53.208Z,98102.88
2022-10-03T12:25:20.143Z,98102.31
2022-10-03T12:28:25.700Z,98100.03
2022-10-03T12:31:11.316Z,98096.91
2022-10-03T12:33:49.842Z,98105.38
2022-10-03T12:36:29.640Z,98102.63
2022-10-03T12:39:19.224Z,98095.50
2022-10-03T12:41:51.848Z,98090.41
2022-10-03T12:44:46.182Z,98082.91
2022-10-03T12:47:56.143Z,98081.84
2022-10-03T12:50:44.499Z,98086.81
2022-10-03T12:53:19.955Z,98078.53
2022-10-03T12:56:11.323Z,98086.19
2022-10-03T12:58:56.852Z,98092.25
2022-10-03T13:01:49.824Z,98091.28
2022-10-03T13:04:22.645Z,98087.56
2022-10-03T13:07:09.512Z,98095.34
2022-10-03T13:10:19.172Z,98100.84
2022-10-03T13:13:06.009Z,98095.41
2022-10-03T13:16:10.191Z,98091.97
2022-10-03T13:18:45.392Z,98087.72
2022-10-03T13:21:45.462Z,98085.16
2022-10-03T13:24:32.735Z,98092.34
2022-10-03T13:27:18.171Z,98088.69
2022-10-03T13:29:49.497Z,98084.59
2022-10-03T13:32:39.497Z,98083.56
2022-10-03T13:35:35.617Z,98087.69
2022-10-03T13:38:12.439Z,98084.06
2022-10-03T13:40:48.617Z,98083.97
2022-10-03T13:43:21.224Z,98080.97
2022-10-03T13:45:51.360Z,98085.78
2022-10-03T13:48:27.069Z,98077.13
2022-10-03T13:51:02.112Z,98071.59
2022-10-03T13:53:31.517Z,98069.38
2022-10-03T13:56:06.143Z,98078.81
2022-10-03T13:58:55.002Z,98067.06
2022-10-03T14:01:27.917Z,98076.28
2022-10-03T14:03:57.218Z,98067.44
2022-10-03T14:06:37.904Z,98059.91
2022-10-03T14:09:20.206Z,98065.09
2022-10-03T14:11:59.987Z,98063.22
2022-10-03T14:14:48.067Z,98063.97
2022-10-03T14:17:41.907Z,98059.59
2022-10-03T14:20:37.358Z,98056.78
2022-10-03T14:23:28.250Z,98060.19
2022-10-03T14:26:05.037Z,98056.88
2022-10-03T14:28:47.916Z,98059.94
2022-10-03T14:31:39.028Z,98051.66
2022-10-03T14:34:37.572Z,98055.78
2022-10-03T14:37:04.090Z,98049.41
2022-10-03T14:39:40.942Z,98051.88
2022-10-03T14:42:28.874Z,98056.41
2022-10-03T14:45:12.567Z,98046.75
2022-10-03T14:47:42.670Z,98051.72
2022-10-03T14:50:21.316Z,98050.03
2022-10-03T14:53:02.628Z,98058.31
2022-10-03T14:55:39.768Z,98054.84
2022-10-03T14:58:28.878Z,98042.25
2022-10-03T15:01:12.444Z,98044.75
2022-10-03T15:03:49.473Z,98036.72
2022-10-03T15:06:39.999Z,98033.84
2022-10-03T15:09:12.645Z,98036.50
2022-10-03T15:11:48.645Z,98034.09
2022-10-03T15:14:15.420Z,98035.19
2022-10-03T15:16:51.719Z,98039.34
2022-10-03T15:19:23.057Z,98042.06
2022-10-03T15:21:53.287Z,98038.63
2022-10-03T15:24:25.569Z,98033.47
2022-10-03T15:26:58.993Z,98030.03
2022-10-03T15:29:26.083Z,98029.03
2022-10-03T15:31:55.808Z,98034.34
2022-10-03T15:34:39.281Z,98035.28
2022-10-03T15:37:15.490Z,98032.44
2022-10-03T15:39:45.590Z,98025.00
2022-10-03T15:42:18.171Z,98022.38
2022-10-03T15:45:05.567Z,98019.38
2022-10-03T15:47:36.734Z,98019.91
2022-10-03T15:50:25.479Z,98018.13
2022-10-03T15:53:04.641Z,98014.19
2022-10-03T15:55:53.175Z,98008.16
2022-10-03T15:58:28.682Z,98008.97
2022-10-03T16:01:19.221Z,98012.56
2022-10-03T16:03:50.097Z,98003.31
2022-10-03T16:06:26.431Z,98006.16
2022-10-03T16:09:01.263Z,98003.56
2022-10-03T16:11:36.653Z,98000.88
2022-10-03T16:14:15.810Z,97993.88
2022-10-03T16:16:52.489Z,97998.47
2022-10-03T16:19:40.123Z,97995.56
2022-10-03T16:22:15.503Z,97997.50
2022-10-03T16:24:45.999Z,97997.53
2022-10-03T16:27:23.130Z,97992.88
2022-10-03T16:30:16.006Z,97984.13
2022-10-03T16:33:00.407Z,97982.97
2022-10-03T16:35:37.328Z,97985.53
2022-10-03T16:38:19.518Z,97983.06
2022-10-03T16:41:00.305Z,97984.78
2022-10-03T16:43:30.738Z,97987.47
2022-10-03T16:46:00.391Z,97982.75
2022-10-03T16:48:52.536Z,97979.97
2022-10-03T16:51:27.278Z,97984.63
2022-10-03T16:53:56.024Z,97986.44
2022-10-03T16:56:28.971Z,97995.56
2022-10-03T16:59:00.420Z,98006.53
2022-10-03T17:01:32.661Z,98003.81
2022-10-03T17:04:05.258Z,97998.53
2022-10-03T17:06:35.842Z,97992.03
2022-10-03T17:09:07.840Z,97997.53
2022-10-03T17:11:38.231Z,97999.66
2022-10-03T17:14:08.450Z,98000.38
2022-10-03T17:16:51.015Z,97994.72
2022-10-03T17:19:44.480Z,97996.16
2022-10-03T17:22:21.470Z,97988.66
2022-10-03T17:24:55.290Z,97992.59
2022-10-03T17:27:32.090Z,97990.34
2022-10-03T17:30:04.585Z,97987.09
2022-10-03T17:32:40.014Z,97988.88
2022-10-03T17:35:12.592Z,97986.63
2022-10-03T17:37:56.303Z,97986.88
2022-10-03T17:40:32.871Z,97986.16
2022-10-03T17:43:09.249Z,97992.13
2022-10-03T17:45:48.360Z,97991.25
2022-10-03T17:48:27.893Z,97989.53
2022-10-03T17:51:12.504Z,97986.91
2022-10-03T17:53:46.918Z,97985.00
2022-10-03T17:56:20.423Z,97988.72
2022-10-03T17:58:56.314Z,97980.88
2022-10-03T18:01:30.978Z,97989.78
2022-10-03T18:04:04.919Z,97983.94
2022-10-03T18:06:35.272Z,97980.88
2022-10-03T18:09:14.100Z,97979.41
2022-10-03T18:11:43.101Z,97979.88
2022-10-03T18:14:19.739Z,97984.94
2022-10-03T18:17:00.643Z,97983.88
2022-10-03T18:19:30.040Z,97971.53
2022-10-03T18:22:12.389Z,97970.81
2022-10-03T18:24:41.998Z,97974.28
2022-10-03T18:27:43.911Z,97978.00
2022-10-03T18:30:19.368Z,97979.25
2022-10-03T18:32:46.921Z,97981.88
2022-10-03T18:35:22.230Z,97983.75
2022-10-03T18:38:06.793Z,97981.38
2022-10-03T18:40:49.053Z,97979.09
2022-10-03T18:43:25.452Z,97984.25
2022-10-03T18:46:00.404Z,97982.91
2022-10-03T18:48:36.166Z,97982.13
2022-10-03T18:51:12.196Z,97982.19
2022-10-03T18:53:55.332Z,97980.63
2022-10-03T18:56:24.986Z,97964.50
2022-10-03T18:59:08.990Z,97962.91
2022-10-03T19:01:52.049Z,97969.81
2022-10-03T19:04:36.799Z,97963.63
2022-10-03T19:07:29.746Z,97966.44
2022-10-03T19:10:45.511Z,97973.81
2022-10-03T19:13:34.888Z,97966.09
2022-10-03T19:16:37.112Z,97960.31
2022-10-03T19:19:25.691Z,97961.16
2022-10-03T19:21:53.399Z,97954.34
2022-10-03T19:24:39.830Z,97963.16
2022-10-03T19:27:15.955Z,97953.44
2022-10-03T19:29:50.456Z,97948.63
2022-10-03T19:32:54.097Z,97946.44
2022-10-03T19:35:22.135Z,97957.16
2022-10-03T19:37:52.940Z,97946.94
2022-10-03T19:40:44.505Z,97939.97
2022-10-03T19:43:44.399Z,97938.44
2022-10-03T19:46:23.373Z,97941.59
2022-10-03T19:49:18.703Z,97938.16
2022-10-03T19:51:46.330Z,97937.88
2022-10-03T19:54:26.707Z,97939.44
2022-10-03T19:56:54.813Z,97943.59
2022-10-03T19:59:38.184Z,97948.31
2022-10-03T20:02:06.942Z,97951.25
2022-10-03T20:04:36.846Z,97946.75
2022-10-03T20:07:50.163Z,97939.91
2022-10-03T20:10:47.767Z,97944.16
2022-10-03T20:13:15.300Z,97940.66
2022-10-03T20:15:45.644Z,97933.09
2022-10-03T20:18:23.754Z,97940.31
2022-10-03T20:20:56.598Z,97935.84
2022-10-03T20:23:28.482Z,97934.41
2022-10-03T20:26:01.119Z,97933.03
2022-10-03T20:28:33.240Z,97942.78
2022-10-03T20:31:00.021Z,97952.56
2022-10-03T20:33:29.711Z,97950.47
2022-10-03T20:36:13.810Z,97964.28
2022-10-03T20:38:48.310Z,97961.66
2022-10-03T20:41:39.715Z,97951.09
2022-10-03T20:44:17.882Z,97947.31
2022-10-03T20:46:49.291Z,97955.81
2022-10-03T20:49:48.519Z,97960.34
2022-10-03T20:52:20.657Z,97948.09
2022-10-03T20:54:50.377Z,97947.25
2022-10-03T20:57:34.238Z,97943.09
2022-10-03T21:00:19.675Z,97950.34
2022-10-03T21:02:54.158Z,97940.91
2022-10-03T21:05:25.701Z,97941.16
2022-10-03T21:08:02.493Z,97935.19
2022-10-03T21:10:33.728Z,97935.38
2022-10-03T21:13:05.408Z,97931.78
2022-10-03T21:15:59.718Z,97939.44
2022-10-03T21:18:40.494Z,97942.31
2022-10-03T21:21:23.539Z,97942.69
2022-10-03T21:24:05.443Z,97949.28
2022-10-03T21:26:38.507Z,97945.03
2022-10-03T21:29:16.955Z,97934.75
2022-10-03T21:31:57.452Z,97933.56
2022-10-03T21:34:33.614Z,97930.88
2022-10-03T21:37:17.187Z,97921.19
2022-10-03T21:39:59.003Z,97925.25
2022-10-03T21:42:31.175Z,97927.81
2022-10-03T21:45:21.980Z,97924.50
2022-10-03T21:47:58.719Z,97930.31
2022-10-03T21:50:30.043Z,97924.97
2022-10-03T21:53:04.892Z,97914.38
2022-10-03T21:55:52.209Z,97915.25
2022-10-03T21:58:44.266Z,97924.72
2022-10-03T22:01:37.944Z,97919.28
2022-10-03T22:04:17.672Z,97906.91
2022-10-03T22:07:02.373Z,97902.75
2022-10-03T22:09:29.050Z,97917.97
2022-10-03T22:11:59.524Z,97914.78
2022-10-03T22:14:43.008Z,97910.41
2022-10-03T22:17:54.817Z,97903.47
2022-10-03T22:20:33.049Z,97911.00
2022-10-03T22:23:14.885Z,97913.78
2022-10-03T22:26:28.801Z,97911.09
2022-10-03T22:29:00.572Z,97897.97
2022-10-03T22:31:38.425Z,97901.47
2022-10-03T22:34:37.682Z,97890.44
2022-10-03T22:37:04.491Z,97887.72
2022-10-03T22:39:35.106Z,97886.03
2022-10-03T22:42:03.930Z,97887.22
2022-10-03T22:44:34.170Z,97880.88
2022-10-03T22:47:08.280Z,97874.81
2022-10-03T22:49:47.014Z,97868.66
2022-10-03T22:52:27.205Z,97874.72
2022-10-03T22:54:56.046Z,97872.53
2022-10-03T22:57:24.187Z,97863.75
2022-10-03T22:59:59.333Z,97856.72
2022-10-03T23:02:30.335Z,97857.22
2022-10-03T23:05:02.568Z,97863.31
2022-10-03T23:07:46.549Z,97859.22
2022-10-03T23:10:13.039Z,97851.25
2022-10-03T23:12:44.965Z,97851.25
2022-10-03T23:15:16.047Z,97849.38
2022-10-03T23:17:48.730Z,97843.47
2022-10-03T23:20:38.094Z,97841.13
2022-10-03T23:23:31.390Z,97836.81
2022-10-03T23:26:22.592Z,97833.63
2022-10-03T23:29:02.479Z,97820.09
2022-10-03T23:31:51.006Z,97814.97
2022-10-03T23:34:32.579Z,97825.44
2022-10-03T23:37:01.788Z,97822.84
2022-10-03T23:39:34.461Z,97813.03
2022-10-03T23:42:08.608Z,97819.19
2022-10-03T23:45:00.717Z,97826.16
2022-10-03T23:47:30.573Z,97834.16
2022-10-03T23:49:57.295Z,97839.75
2022-10-03T23:52:29.028Z,97833.66
2022-10-03T23:55:00.858Z,97827.91
2022-10-03T23:57:34.319Z,97826.19
